メインページ
METAR-TAF:

METAR-TAF

空港 :

カラカス, ベネズエラ

シモン・ボリバル国際空港

緯度: 10-36N, 経度: 066-59W, 海抜: 43m

現時点の気象観測

当レポートは32分前の01:00(UTC)に作成
無風
気温 28°C
湿度 74%
気圧 1010 hPa
視程10km以上
高度1600ftの雲は散在している

METAR: SVMI 240100Z 00000KT 9999 SCT016 28/23 Q1010

時間: 21:32 (01:32 UTC)

予報

当レポートは3時間32分前の22:00(UTC)に作成
予報は24日の 00時(UTC)から 25日の 00時(UTC)まで有効
の風 5kt
視程10km以上
高度1600ftの雲は散在している
24日の 00時(UTC)から 24日の 04時(UTC)まで徐々に
東/北東の風 5kt
高度2000ftの千切れ雲あり
24日の 0530時(UTC)から
の風 kt
視程10km以上
高度1600ftの雲はほとんどない

TAF: SVMI 232200Z 2400/2500 09005KT 9999 SCT016 TX33/18Z TN25/08Z BECMG 2400/2404 06005KT 9000VCDZ BKN020 FM240530 00000KT 9999 FEW016

4,000以上の空港の気象観測と天気予報(METAR報とTAF報)

利用可能な観測所は地図上に黄色い丸と赤い丸で示す。

丸の上にカーソルを重ねると観測所名を参照できる。

次にクリックすると気象観測と天気予報を参照できる。

マップの切り替え:黒色「×」印の緑ボタンをクリックして拡大、「-」印の緑ボタンをクリックして縮小、緑色の三角印をクリックして隣りの地図に切り替え


METAR-TAF: